Time;durP1;ratioP1;P1;durP2;ratioP2;P2;SDS_P1;SDS_P2;PMS_P1;PMS_P2;Temp;Humidity;BMP_temperature;BMP_pressure;BME280_temperature;BME280_humidity;BME280_pressure;Samples;Min_cycle;Max_cycle;Signal;HPM_P1;HPM_P2
2023/03/16 00:00:12;;;;;;;14.73;10.57;;;;;;;1.18;100.00;151672.69;5054278;28;20478;-84
2023/03/16 00:02:39;;;;;;;12.97;10.40;;;;;;;1.16;100.00;151667.56;5070302;28;20552;-84
2023/03/16 00:05:06;;;;;;;12.13;9.50;;;;;;;1.15;100.00;151663.66;5083297;28;21023;-84
2023/03/16 00:07:34;;;;;;;10.77;9.00;;;;;;;1.16;100.00;151667.56;5044545;28;20956;-83
2023/03/16 00:10:00;;;;;;;9.93;8.30;;;;;;;1.16;100.00;151666.25;5056469;28;20850;-83
2023/03/16 00:12:27;;;;;;;10.30;8.60;;;;;;;1.13;100.00;151659.84;5077772;28;20468;-84
2023/03/16 00:14:55;;;;;;;11.87;9.50;;;;;;;1.08;100.00;151645.69;5064652;28;20477;-83
2023/03/16 00:17:22;;;;;;;12.37;9.83;;;;;;;1.08;100.00;151647.00;5068948;28;20442;-84
2023/03/16 00:19:53;;;;;;;12.53;9.07;;;;;;;1.04;100.00;151636.69;5066109;28;20915;-82
2023/03/16 00:22:21;;;;;;;12.70;9.03;;;;;;;1.10;100.00;151650.84;5052862;28;20496;-83
2023/03/16 00:24:48;;;;;;;10.63;8.87;;;;;;;1.11;100.00;151654.66;5070652;28;20801;-83
2023/03/16 00:27:16;;;;;;;13.60;9.47;;;;;;;1.12;100.00;151657.25;5073731;28;20444;-83
2023/03/16 00:29:46;;;;;;;9.47;7.33;;;;;;;1.15;100.00;151664.97;5073120;28;20454;-84
2023/03/16 00:32:16;;;;;;;8.77;7.53;;;;;;;1.11;100.00;151653.41;5084117;28;20472;-84
2023/03/16 00:34:43;;;;;;;11.63;8.77;;;;;;;1.07;100.00;151644.41;5051441;28;20972;-84
2023/03/16 00:37:12;;;;;;;13.27;10.00;;;;;;;1.04;100.00;151636.69;5063373;28;20795;-84
2023/03/16 00:39:40;;;;;;;12.13;10.70;;;;;;;1.00;100.00;151626.44;5076370;28;20514;-84
2023/03/16 00:42:08;;;;;;;13.67;10.63;;;;;;;0.97;100.00;151618.72;5093734;28;20665;-84
2023/03/16 00:44:35;;;;;;;13.70;10.33;;;;;;;0.93;100.00;151607.13;5055547;28;20476;-84
2023/03/16 00:47:02;;;;;;;14.40;10.27;;;;;;;0.92;100.00;151605.91;5066114;28;20481;-84
2023/03/16 00:49:33;;;;;;;11.23;9.70;;;;;;;0.92;100.00;151605.91;5081136;28;20461;-84
2023/03/16 00:52:00;;;;;;;12.23;8.97;;;;;;;1.00;100.00;151626.44;5069062;28;20954;-83
2023/03/16 00:54:27;;;;;;;11.00;8.97;;;;;;;0.99;100.00;151623.84;5089787;28;20988;-83
2023/03/16 00:56:54;;;;;;;13.03;9.23;;;;;;;0.97;100.00;151618.72;5045049;28;20440;-84
2023/03/16 00:59:21;;;;;;;10.67;8.73;;;;;;;1.02;100.00;151630.28;5044970;28;20494;-83
2023/03/16 01:01:48;;;;;;;12.20;8.87;;;;;;;0.95;100.00;151613.59;5079998;28;21001;-83
2023/03/16 01:04:15;;;;;;;10.73;9.00;;;;;;;0.95;100.00;151613.59;5071680;28;20448;-83
2023/03/16 01:06:43;;;;;;;14.50;10.90;;;;;;;0.97;100.00;151618.72;5054623;28;20489;-84
2023/03/16 01:09:11;;;;;;;14.77;10.73;;;;;;;0.95;100.00;151613.59;5042677;28;20547;-84
2023/03/16 01:11:38;;;;;;;13.70;10.90;;;;;;;0.87;100.00;151593.06;5073148;28;20441;-84
2023/03/16 01:14:05;;;;;;;13.93;11.57;;;;;;;0.86;100.00;151590.47;5057607;28;20491;-84
2023/03/16 01:16:33;;;;;;;14.50;11.70;;;;;;;0.89;100.00;151596.88;5056768;28;20552;-84
2023/03/16 01:19:00;;;;;;;16.50;11.97;;;;;;;0.86;100.00;151589.19;5071644;28;20449;-84
2023/03/16 01:21:27;;;;;;;15.00;11.70;;;;;;;0.89;100.00;151598.19;5054326;28;20481;-83
2023/03/16 01:23:55;;;;;;;15.80;11.73;;;;;;;0.92;100.00;151605.91;5071476;28;20457;-84
2023/03/16 01:26:24;;;;;;;16.73;13.80;;;;;;;0.96;100.00;151616.16;5056444;28;20554;-83
2023/03/16 01:28:50;;;;;;;17.93;13.63;;;;;;;0.91;100.00;151603.31;5098192;28;20496;-84
2023/03/16 01:31:17;;;;;;;15.97;12.37;;;;;;;0.86;100.00;151590.47;5035238;28;20935;-84
2023/03/16 01:33:44;;;;;;;13.97;12.33;;;;;;;0.82;100.00;151580.16;5056876;28;20456;-84
2023/03/16 01:36:16;;;;;;;16.50;13.33;;;;;;;0.81;100.00;151576.34;5056835;28;20432;-84
2023/03/16 01:38:49;;;;;;;16.27;12.13;;;;;;;0.76;100.00;151564.81;5055136;28;20481;-84
2023/03/16 01:41:18;;;;;;;15.50;12.80;;;;;;;0.72;100.00;151554.50;5054087;28;20508;-83
2023/03/16 01:43:45;;;;;;;14.70;12.40;;;;;;;0.66;100.00;151539.13;5062576;28;20452;-84
2023/03/16 01:46:20;;;;;;;19.20;13.83;;;;;;;0.64;100.00;151533.94;5055707;28;20444;-84
2023/03/16 01:48:58;;;;;;;15.90;13.07;;;;;;;0.63;100.00;151530.13;5054226;28;20804;-84
2023/03/16 01:51:29;;;;;;;18.40;14.10;;;;;;;0.53;100.00;151505.75;5053590;28;20432;-84
2023/03/16 01:53:58;;;;;;;22.70;13.80;;;;;;;0.52;100.00;151503.16;5075813;28;20464;-84
2023/03/16 01:56:33;;;;;;;19.07;14.43;;;;;;;0.43;100.00;151480.03;5037393;28;20510;-85
2023/03/16 01:59:01;;;;;;;17.00;13.83;;;;;;;0.38;100.00;151468.50;5049322;28;20512;-85
2023/03/16 02:01:29;;;;;;;19.07;13.93;;;;;;;0.33;100.00;151454.38;5073802;28;20531;-84
2023/03/16 02:04:02;;;;;;;17.90;14.20;;;;;;;0.27;100.00;151438.97;5048236;28;20440;-84
2023/03/16 02:06:31;;;;;;;16.63;13.50;;;;;;;0.24;100.00;151431.28;5051550;28;20465;-85
2023/03/16 02:08:59;;;;;;;18.90;13.33;;;;;;;0.24;100.00;151432.53;5053801;28;20481;-84
2023/03/16 02:11:28;;;;;;;17.17;12.97;;;;;;;0.25;100.00;151435.13;5078160;28;20841;-84
2023/03/16 02:14:06;;;;;;;17.43;12.63;;;;;;;0.23;100.00;151428.72;5037140;28;20452;-84
2023/03/16 02:16:33;;;;;;;18.33;14.00;;;;;;;0.22;100.00;151427.41;5066507;28;20996;-84
2023/03/16 02:19:00;;;;;;;20.10;13.40;;;;;;;0.19;100.00;151418.41;5056286;28;21032;-84
2023/03/16 02:21:33;;;;;;;19.37;14.07;;;;;;;0.15;100.00;151408.19;5058164;28;20535;-84
2023/03/16 02:24:02;;;;;;;19.87;13.10;;;;;;;0.14;100.00;151405.59;5036654;28;20454;-84
2023/03/16 02:26:37;;;;;;;15.03;11.27;;;;;;;0.15;100.00;151408.19;5064406;28;20831;-84
2023/03/16 02:29:17;;;;;;;16.63;12.33;;;;;;;0.13;100.00;151403.06;5047678;28;20458;-84
2023/03/16 02:31:47;;;;;;;20.27;13.60;;;;;;;0.12;100.00;151400.47;5056582;28;20921;-84
2023/03/16 02:34:15;;;;;;;16.77;11.80;;;;;;;0.10;100.00;151395.34;5050010;28;20442;-84
2023/03/16 02:36:44;;;;;;;15.60;12.70;;;;;;;0.10;100.00;151396.63;5069334;28;20773;-77
2023/03/16 02:39:10;;;;;;;18.77;12.90;;;;;;;0.09;100.00;151394.06;5048503;28;20849;-77
2023/03/16 02:41:45;;;;;;;16.83;11.47;;;;;;;0.06;100.00;151386.34;5066083;28;20474;-77
2023/03/16 02:44:14;;;;;;;18.63;13.27;;;;;;;0.08;100.00;151390.22;5054214;28;20465;-77
2023/03/16 02:46:43;;;;;;;17.87;13.93;;;;;;;0.10;100.00;151395.34;5052082;28;20446;-77
2023/03/16 02:49:16;;;;;;;14.17;11.10;;;;;;;0.05;100.00;151383.81;5052940;28;20463;-77
2023/03/16 02:51:44;;;;;;;16.00;11.57;;;;;;;0.05;100.00;151383.81;5053055;28;20437;-77
2023/03/16 02:54:11;;;;;;;12.17;10.87;;;;;;;0.00;100.00;151370.97;5051868;28;20495;-78
2023/03/16 02:56:39;;;;;;;17.10;12.70;;;;;;;-0.02;100.00;151365.81;5048898;28;20461;-77
2023/03/16 02:59:06;;;;;;;18.37;13.40;;;;;;;-0.03;100.00;151363.28;5062163;28;20936;-77
2023/03/16 03:01:33;;;;;;;17.93;12.47;;;;;;;-0.08;100.00;151351.69;5069167;28;20961;-77
2023/03/16 03:04:00;;;;;;;19.60;12.30;;;;;;;-0.09;100.00;151349.16;5066650;28;20801;-77
2023/03/16 03:06:29;;;;;;;16.97;12.83;;;;;;;-0.09;100.00;151349.16;5050889;28;20439;-77
2023/03/16 03:08:56;;;;;;;15.77;12.43;;;;;;;-0.13;100.00;151337.56;5069519;28;20472;-77
2023/03/16 03:11:23;;;;;;;17.87;13.53;;;;;;;-0.16;100.00;151331.16;5069923;28;20447;-77
2023/03/16 03:13:49;;;;;;;20.07;12.90;;;;;;;-0.19;100.00;151322.22;5075224;28;20455;-77
2023/03/16 03:16:21;;;;;;;16.17;12.10;;;;;;;-0.17;100.00;151328.63;5049974;28;20472;-78
2023/03/16 03:18:49;;;;;;;21.47;15.00;;;;;;;-0.14;100.00;151336.34;5056984;28;20460;-77
2023/03/16 03:21:16;;;;;;;15.47;12.77;;;;;;;-0.12;100.00;151341.44;5058346;28;20960;-77
2023/03/16 03:23:45;;;;;;;19.83;13.90;;;;;;;-0.09;100.00;151347.88;5041567;28;20556;-77
2023/03/16 03:26:13;;;;;;;17.87;13.50;;;;;;;-0.05;100.00;151359.41;5039565;28;20456;-77
2023/03/16 03:28:40;;;;;;;19.70;14.80;;;;;;;-0.01;100.00;151368.41;5067857;28;20781;-77
2023/03/16 03:31:07;;;;;;;17.50;13.60;;;;;;;-0.03;100.00;151363.28;5067011;28;20461;-77
2023/03/16 03:33:34;;;;;;;20.40;13.17;;;;;;;-0.04;100.00;151361.97;5032799;28;20480;-78
2023/03/16 03:36:02;;;;;;;17.80;14.00;;;;;;;-0.05;100.00;151358.09;5068113;28;20444;-77
2023/03/16 03:38:34;;;;;;;20.30;13.60;;;;;;;-0.13;100.00;151337.56;5049678;28;20791;-77
2023/03/16 03:41:03;;;;;;;17.23;13.10;;;;;;;-0.17;100.00;151328.63;5031637;28;20853;-77
2023/03/16 03:43:33;;;;;;;17.70;12.10;;;;;;;-0.16;100.00;151331.16;5067192;28;20468;-77
2023/03/16 03:46:01;;;;;;;17.00;12.70;;;;;;;-0.16;100.00;151331.16;5060042;28;20479;-77
2023/03/16 03:48:30;;;;;;;20.40;12.00;;;;;;;-0.18;100.00;151326.03;5054137;28;20842;-77
2023/03/16 03:50:57;;;;;;;17.90;12.30;;;;;;;-0.14;100.00;151336.34;5079877;28;20462;-77
2023/03/16 03:53:45;;;;;;;15.30;12.30;;;;;;;-0.12;100.00;151341.44;5074214;28;20436;-77
2023/03/16 03:56:33;;;;;;;19.10;13.27;;;;;;;-0.10;100.00;151345.28;5064116;28;20446;-77
2023/03/16 03:59:00;;;;;;;20.70;13.87;;;;;;;-0.08;100.00;151351.69;5052217;28;20466;-77
2023/03/16 04:01:47;;;;;;;18.50;13.13;;;;;;;-0.11;100.00;151344.00;5066231;28;20795;-77
2023/03/16 04:04:15;;;;;;;15.47;12.10;;;;;;;-0.10;100.00;151345.28;5073917;28;20458;-78
2023/03/16 04:06:42;;;;;;;16.57;11.20;;;;;;;-0.10;100.00;151346.56;5075061;28;20431;-77
2023/03/16 04:09:08;;;;;;;15.00;12.00;;;;;;;-0.09;100.00;151347.88;5059757;28;20808;-77
2023/03/16 04:11:37;;;;;;;16.43;12.07;;;;;;;-0.08;100.00;151351.69;5029492;28;20446;-78
2023/03/16 04:14:05;;;;;;;17.07;11.73;;;;;;;-0.08;100.00;151350.44;5048385;28;20456;-77
2023/03/16 04:16:32;;;;;;;14.67;11.40;;;;;;;-0.05;100.00;151359.41;5033306;28;20770;-77
2023/03/16 04:19:00;;;;;;;17.33;11.50;;;;;;;-0.06;100.00;151356.88;5034373;28;21010;-77
2023/03/16 04:21:27;;;;;;;13.53;10.87;;;;;;;-0.05;100.00;151358.09;5032571;28;20458;-77
2023/03/16 04:23:54;;;;;;;19.93;12.53;;;;;;;-0.03;100.00;151364.53;5047975;28;20542;-77
2023/03/16 04:26:25;;;;;;;16.87;12.73;;;;;;;-0.02;100.00;151367.09;5038744;28;20457;-77
2023/03/16 04:28:54;;;;;;;17.67;12.10;;;;;;;-0.01;100.00;151368.41;5036464;28;20438;-77
2023/03/16 04:31:21;;;;;;;18.33;11.97;;;;;;;0.04;100.00;151379.94;5043929;28;20471;-77
2023/03/16 04:33:48;;;;;;;19.23;13.43;;;;;;;-0.03;100.00;151364.53;5037558;28;20438;-77
2023/03/16 04:36:15;;;;;;;19.17;13.10;;;;;;;-0.04;100.00;151361.97;5046941;28;20445;-77
2023/03/16 04:38:43;;;;;;;17.20;12.40;;;;;;;-0.04;100.00;151360.69;5033142;28;20503;-77
2023/03/16 04:41:11;;;;;;;17.70;12.80;;;;;;;-0.09;100.00;151349.16;5024385;28;20864;-77
2023/03/16 04:43:44;;;;;;;20.57;13.50;;;;;;;-0.13;100.00;151338.88;5039931;28;21087;-77
2023/03/16 04:46:22;;;;;;;17.00;12.50;;;;;;;-0.13;100.00;151338.88;5035332;28;20477;-77
2023/03/16 04:48:49;;;;;;;18.80;12.87;;;;;;;-0.11;100.00;151344.00;5034819;28;20540;-77
2023/03/16 04:51:15;;;;;;;19.00;13.10;;;;;;;-0.10;100.00;151346.56;5033830;28;20521;-77
2023/03/16 04:53:51;;;;;;;19.90;13.27;;;;;;;-0.10;100.00;151345.28;5015124;28;20454;-77
2023/03/16 04:56:24;;;;;;;18.43;12.43;;;;;;;-0.10;100.00;151345.28;5048615;28;20442;-77
2023/03/16 04:58:56;;;;;;;21.93;14.83;;;;;;;-0.07;100.00;151352.97;5031669;28;20457;-77
2023/03/16 05:01:26;;;;;;;20.17;13.10;;;;;;;-0.04;100.00;151361.97;5042184;28;20457;-77
2023/03/16 05:03:57;;;;;;;18.10;12.83;;;;;;;-0.04;100.00;151361.97;5029396;28;20485;-77
2023/03/16 05:06:24;;;;;;;18.50;12.87;;;;;;;-0.04;100.00;151361.97;5034903;28;20670;-77
2023/03/16 05:08:50;;;;;;;17.03;12.60;;;;;;;-0.02;100.00;151367.09;5027223;28;20975;-77
2023/03/16 05:11:17;;;;;;;18.40;13.87;;;;;;;-0.02;100.00;151367.09;5059218;28;20482;-77
2023/03/16 05:13:53;;;;;;;18.27;12.73;;;;;;;0.01;100.00;151373.53;5051124;28;20438;-77
2023/03/16 05:16:20;;;;;;;17.60;12.73;;;;;;;-0.02;100.00;151367.09;5018526;28;20436;-77
2023/03/16 05:18:48;;;;;;;17.90;12.10;;;;;;;-0.02;100.00;151367.09;5049255;28;20453;-77
2023/03/16 05:21:16;;;;;;;20.20;13.30;;;;;;;-0.03;100.00;151363.28;5052965;28;20866;-78
2023/03/16 05:24:00;;;;;;;19.00;13.03;;;;;;;-0.04;100.00;151361.97;5020593;28;20481;-77
2023/03/16 05:26:27;;;;;;;19.10;13.13;;;;;;;-0.04;100.00;151360.69;5047987;28;20442;-77
2023/03/16 05:28:54;;;;;;;17.40;12.37;;;;;;;-0.05;100.00;151359.41;5038451;28;20455;-77
2023/03/16 05:31:26;;;;;;;17.70;11.83;;;;;;;-0.05;100.00;151359.41;5057899;28;20472;-77
2023/03/16 05:33:58;;;;;;;17.73;12.20;;;;;;;-0.03;100.00;151363.28;5021218;28;20451;-77
2023/03/16 05:36:25;;;;;;;21.60;14.27;;;;;;;-0.03;100.00;151364.53;5036967;28;20446;-77
2023/03/16 05:38:57;;;;;;;18.30;12.20;;;;;;;-0.01;100.00;151369.69;5041474;28;20504;-77
2023/03/16 05:41:53;;;;;;;22.53;13.33;;;;;;;-0.02;100.00;151367.09;5027808;28;20504;-77
2023/03/16 05:44:30;;;;;;;20.60;13.20;;;;;;;0.00;100.00;151370.97;5020096;28;20490;-77
2023/03/16 05:47:23;;;;;;;20.03;13.17;;;;;;;0.02;100.00;151374.81;5021515;28;20458;-77
2023/03/16 05:49:56;;;;;;;21.13;12.43;;;;;;;0.03;100.00;151377.41;5031596;28;20544;-77
2023/03/16 05:52:32;;;;;;;21.97;14.40;;;;;;;0.03;100.00;151378.63;5023123;28;20433;-77
2023/03/16 05:55:04;;;;;;;20.50;13.43;;;;;;;0.07;100.00;151387.63;5036640;28;20556;-77
2023/03/16 05:57:31;;;;;;;20.67;12.70;;;;;;;0.06;100.00;151386.34;5065248;28;20984;-77
2023/03/16 06:00:00;;;;;;;21.10;14.00;;;;;;;0.11;100.00;151397.94;5051841;28;20464;-77
2023/03/16 06:02:27;;;;;;;23.33;15.33;;;;;;;0.13;100.00;151403.06;5038064;28;20521;-77
2023/03/16 06:04:55;;;;;;;20.27;13.63;;;;;;;0.15;100.00;151408.19;5043315;28;20580;-77
2023/03/16 06:07:23;;;;;;;20.53;13.10;;;;;;;0.19;100.00;151418.41;5039425;28;20467;-78
2023/03/16 06:09:53;;;;;;;19.37;11.80;;;;;;;0.20;100.00;151422.28;5046799;28;20478;-78
2023/03/16 06:12:20;;;;;;;20.30;12.10;;;;;;;0.23;100.00;151428.72;5033321;28;20457;-77
2023/03/16 06:14:47;;;;;;;21.40;13.47;;;;;;;0.26;100.00;151436.41;5034408;28;20466;-78
2023/03/16 06:17:15;;;;;;;18.07;12.63;;;;;;;0.29;100.00;151444.13;5017533;28;20462;-77
2023/03/16 06:19:42;;;;;;;18.80;13.47;;;;;;;0.32;100.00;151453.06;5035457;28;20930;-77
2023/03/16 06:22:11;;;;;;;20.70;13.17;;;;;;;0.34;100.00;151456.97;5016377;28;20513;-77
2023/03/16 06:24:38;;;;;;;17.10;11.50;;;;;;;0.38;100.00;151468.50;5004239;28;20482;-77
2023/03/16 06:27:05;;;;;;;19.50;12.73;;;;;;;0.47;100.00;151490.34;5017207;28;20912;-77
2023/03/16 06:29:42;;;;;;;18.30;12.20;;;;;;;0.57;100.00;151517.28;5026599;28;20462;-77
2023/03/16 06:32:10;;;;;;;21.07;13.50;;;;;;;0.70;100.00;151549.38;5016348;28;20554;-77
2023/03/16 06:34:36;;;;;;;18.43;13.17;;;;;;;0.83;100.00;151582.75;5039522;28;20445;-77
2023/03/16 06:37:03;;;;;;;16.57;12.37;;;;;;;1.02;100.00;151631.56;5024661;28;20996;-77
2023/03/16 06:39:31;;;;;;;18.10;12.90;;;;;;;1.16;100.00;151666.25;5020002;28;20456;-77
2023/03/16 06:42:00;;;;;;;18.30;12.60;;;;;;;1.31;100.00;151704.78;5018019;28;20452;-77
2023/03/16 06:44:27;;;;;;;17.40;11.90;;;;;;;1.41;100.00;151729.16;5018468;28;20479;-77
2023/03/16 06:47:03;;;;;;;18.40;12.23;;;;;;;1.52;100.00;151758.75;5016568;28;20449;-77
2023/03/16 06:49:30;;;;;;;18.50;13.30;;;;;;;1.71;100.00;151806.28;5022518;28;20925;-78
2023/03/16 06:51:57;;;;;;;16.40;11.23;;;;;;;1.93;100.00;151862.88;5018288;28;20469;-77
2023/03/16 06:54:27;;;;;;;16.80;12.00;;;;;;;2.08;100.00;151900.13;5035340;28;20449;-75
2023/03/16 06:56:55;;;;;;;16.90;11.40;;;;;;;2.25;100.00;151943.84;5019284;28;20462;-77
2023/03/16 06:59:22;;;;;;;15.47;10.93;;;;;;;2.40;100.00;151983.72;5035904;28;20838;-77
2023/03/16 07:01:49;;;;;;;13.93;9.80;;;;;;;2.57;100.00;152024.88;5018814;28;20453;-77
2023/03/16 07:04:16;;;;;;;15.07;10.90;;;;;;;2.64;100.00;152044.16;5017499;28;21119;-78
2023/03/16 07:06:43;;;;;;;15.20;11.43;;;;;;;2.78;100.00;152078.88;5022325;28;20494;-77
2023/03/16 07:09:11;;;;;;;13.30;10.17;;;;;;;2.91;100.00;152112.34;5033447;28;20492;-77
2023/03/16 07:11:38;;;;;;;11.87;9.33;;;;;;;2.91;100.00;152112.34;5002243;28;20459;-77
2023/03/16 07:14:06;;;;;;;12.10;9.27;;;;;;;3.10;100.00;152159.94;5032095;28;20951;-77
2023/03/16 07:16:34;;;;;;;15.10;11.37;;;;;;;3.29;100.00;152210.09;5038325;28;20535;-77
2023/03/16 07:19:03;;;;;;;13.67;10.13;;;;;;;3.59;100.00;152287.34;5026825;28;20462;-77
2023/03/16 07:21:37;;;;;;;13.00;10.80;;;;;;;3.82;100.00;152345.25;5019065;28;20457;-78
2023/03/16 07:24:08;;;;;;;12.80;9.70;;;;;;;3.92;98.96;152369.75;5033280;28;20492;-77
2023/03/16 07:26:37;;;;;;;12.70;9.90;;;;;;;4.11;98.07;152418.66;5036330;28;20449;-77
2023/03/16 07:29:05;;;;;;;11.33;8.90;;;;;;;4.15;96.74;152428.97;5025447;28;20745;-77
2023/03/16 07:31:33;;;;;;;12.70;9.27;;;;;;;4.22;94.99;152447.00;5021951;28;20452;-77
2023/03/16 07:34:02;;;;;;;13.50;9.70;;;;;;;4.15;93.80;152430.28;5039307;28;20550;-77
2023/03/16 07:36:36;;;;;;;14.50;9.90;;;;;;;4.37;96.78;152484.38;5037766;28;20464;-77
2023/03/16 07:39:05;;;;;;;13.10;10.87;;;;;;;4.57;94.82;152537.19;5028052;28;20464;-77
2023/03/16 07:41:33;;;;;;;11.73;9.50;;;;;;;4.87;93.67;152613.22;5026899;28;20639;-77
2023/03/16 07:44:20;;;;;;;10.40;8.70;;;;;;;5.16;91.68;152687.97;5027602;28;20480;-77
2023/03/16 07:46:48;;;;;;;12.83;9.77;;;;;;;5.42;89.85;152755.00;5034271;28;20451;-77
2023/03/16 07:49:16;;;;;;;16.10;9.60;;;;;;;5.69;90.00;152822.03;5037858;28;20480;-77
2023/03/16 07:51:44;;;;;;;11.47;9.63;;;;;;;5.59;87.35;152796.25;5021153;28;20471;-77
2023/03/16 07:54:10;;;;;;;9.97;8.80;;;;;;;5.47;85.66;152766.59;5035673;28;20455;-77
2023/03/16 07:56:38;;;;;;;11.57;8.20;;;;;;;5.34;84.65;152733.06;5019767;28;20946;-77
2023/03/16 07:59:05;;;;;;;11.63;8.17;;;;;;;5.60;87.26;152800.09;5023602;28;20534;-78
2023/03/16 08:01:33;;;;;;;10.00;7.70;;;;;;;5.70;84.38;152824.59;5036343;28;21009;-78
2023/03/16 08:04:00;;;;;;;11.63;8.77;;;;;;;5.66;83.59;152814.28;5038070;28;20480;-78
2023/03/16 08:06:28;;;;;;;12.13;7.80;;;;;;;5.57;84.16;152791.06;5018871;28;20455;-78
2023/03/16 08:08:55;;;;;;;8.27;7.03;;;;;;;5.70;83.49;152824.59;5019918;28;20476;-78
2023/03/16 08:11:31;;;;;;;10.13;7.87;;;;;;;5.80;82.26;152851.66;5036439;28;20459;-78
2023/03/16 08:14:03;;;;;;;10.03;8.30;;;;;;;5.81;84.00;152852.97;5034715;28;20468;-77
2023/03/16 08:16:49;;;;;;;13.53;8.70;;;;;;;5.85;84.92;152863.38;5034252;28;20480;-77
2023/03/16 08:19:19;;;;;;;11.03;8.47;;;;;;;6.07;85.57;152921.38;5020021;28;20543;-77
2023/03/16 08:21:46;;;;;;;11.90;8.30;;;;;;;5.92;84.95;152882.69;4998492;28;20863;-77
2023/03/16 08:24:13;;;;;;;10.13;7.30;;;;;;;5.86;83.18;152865.91;5032291;28;20479;-77
2023/03/16 08:26:39;;;;;;;10.40;7.97;;;;;;;5.87;84.08;152868.50;5019945;28;20962;-77
2023/03/16 08:29:06;;;;;;;9.40;7.23;;;;;;;5.68;82.65;152819.44;5019833;28;20457;-77
2023/03/16 08:31:36;;;;;;;9.40;7.37;;;;;;;5.47;85.78;152767.88;5019847;28;20483;-77
2023/03/16 08:34:10;;;;;;;11.80;9.33;;;;;;;5.50;86.89;152774.31;5036738;28;20538;-77
2023/03/16 08:36:43;;;;;;;9.67;7.83;;;;;;;5.76;89.51;152840.06;5025758;28;20530;-77
2023/03/16 08:39:11;;;;;;;9.23;7.40;;;;;;;5.96;89.15;152893.00;5020709;28;20453;-77
2023/03/16 08:41:42;;;;;;;10.07;7.40;;;;;;;5.92;82.71;152881.41;5020667;28;20479;-77
2023/03/16 08:44:20;;;;;;;8.67;7.33;;;;;;;5.96;86.62;152891.69;5019148;28;20502;-77
2023/03/16 08:46:47;;;;;;;10.43;7.90;;;;;;;6.04;84.68;152913.63;5021990;28;20494;-77
2023/03/16 08:49:16;;;;;;;8.70;7.23;;;;;;;6.10;87.92;152929.13;5037390;28;20462;-77
2023/03/16 08:51:43;;;;;;;10.00;8.17;;;;;;;6.21;88.70;152954.94;5019744;28;20457;-77
2023/03/16 08:54:10;;;;;;;11.00;8.20;;;;;;;6.07;85.81;152921.38;5035037;28;20459;-77
2023/03/16 08:56:37;;;;;;;8.40;7.03;;;;;;;5.83;86.35;152859.41;5035347;28;21273;-77
2023/03/16 08:59:04;;;;;;;8.70;7.30;;;;;;;6.02;89.86;152908.50;5036009;28;20911;-77
2023/03/16 09:01:31;;;;;;;9.50;7.60;;;;;;;5.95;83.65;152890.44;5019077;28;20451;-77
2023/03/16 09:03:58;;;;;;;9.07;7.63;;;;;;;5.95;87.79;152889.16;5034476;28;20489;-77
2023/03/16 09:06:26;;;;;;;10.33;7.23;;;;;;;6.03;88.97;152911.09;5037076;28;21141;-77
2023/03/16 09:08:54;;;;;;;10.00;8.07;;;;;;;5.99;84.76;152899.44;5017924;28;20479;-77
2023/03/16 09:11:22;;;;;;;11.33;8.87;;;;;;;6.01;89.40;152905.88;5036248;28;20455;-77
2023/03/16 09:13:49;;;;;;;9.27;8.00;;;;;;;6.16;90.56;152942.03;5035039;28;20476;-77
2023/03/16 09:16:16;;;;;;;8.60;7.03;;;;;;;6.11;84.29;152931.72;5022560;28;20435;-77
2023/03/16 09:18:43;;;;;;;10.70;8.60;;;;;;;6.18;85.58;152947.19;5022455;28;20453;-77
2023/03/16 09:21:12;;;;;;;11.20;8.30;;;;;;;6.02;86.09;152908.50;5035686;28;20494;-77
2023/03/16 09:23:41;;;;;;;9.70;8.33;;;;;;;5.91;86.17;152880.09;5032118;28;20897;-77
2023/03/16 09:26:08;;;;;;;7.17;6.40;;;;;;;6.01;86.98;152905.88;5019072;28;20531;-77
2023/03/16 09:28:37;;;;;;;7.83;6.53;;;;;;;6.13;87.23;152936.88;5033495;28;20513;-77
2023/03/16 09:31:05;;;;;;;6.83;5.87;;;;;;;6.06;83.23;152918.78;5020364;28;20448;-77
2023/03/16 09:33:32;;;;;;;8.63;6.93;;;;;;;6.25;87.49;152966.53;5034099;28;20786;-77
2023/03/16 09:35:59;;;;;;;9.13;6.20;;;;;;;6.32;81.28;152984.63;5033537;28;20531;-77
2023/03/16 09:38:26;;;;;;;7.50;5.23;;;;;;;6.41;80.36;153006.53;5036381;28;20452;-77
2023/03/16 09:40:59;;;;;;;7.13;5.93;;;;;;;6.49;81.41;153027.16;5020806;28;20812;-77
2023/03/16 09:43:42;;;;;;;9.33;6.20;;;;;;;6.55;84.06;153043.97;5020057;28;20456;-77
2023/03/16 09:46:11;;;;;;;7.90;5.90;;;;;;;6.73;80.70;153089.13;5034717;28;20525;-77
2023/03/16 09:48:39;;;;;;;6.03;5.43;;;;;;;6.75;77.32;153095.56;5033809;28;20819;-78
2023/03/16 09:51:10;;;;;;;7.87;5.77;;;;;;;6.81;81.89;153109.78;5034338;28;20441;-77
2023/03/16 09:53:38;;;;;;;8.30;6.60;;;;;;;6.87;79.45;153123.97;5036085;28;20450;-77
2023/03/16 09:56:10;;;;;;;6.70;5.73;;;;;;;6.90;78.80;153133.03;5018027;28;20876;-77
2023/03/16 09:58:38;;;;;;;7.17;5.93;;;;;;;6.96;78.12;153148.53;5023305;28;20456;-77
2023/03/16 10:01:10;;;;;;;7.93;6.37;;;;;;;7.04;77.95;153167.91;5021398;28;20973;-78
2023/03/16 10:03:53;;;;;;;7.57;5.07;;;;;;;7.10;79.45;153184.66;5018802;28;20882;-77
2023/03/16 10:06:20;;;;;;;8.97;5.97;;;;;;;7.16;79.43;153200.16;5035932;28;20534;-77
2023/03/16 10:08:51;;;;;;;7.17;6.47;;;;;;;7.11;75.75;153187.25;5039638;28;20494;-77
2023/03/16 10:11:25;;;;;;;7.33;6.03;;;;;;;7.05;79.36;153171.75;5039359;28;20447;-77
2023/03/16 10:13:55;;;;;;;7.70;6.20;;;;;;;7.07;80.04;153175.66;5039154;28;20435;-77
2023/03/16 10:16:25;;;;;;;7.60;6.70;;;;;;;7.07;77.29;153175.66;5055908;28;20889;-77
2023/03/16 10:18:58;;;;;;;7.40;6.30;;;;;;;7.12;79.33;153189.81;5052815;28;20475;-77
2023/03/16 10:21:26;;;;;;;9.80;7.03;;;;;;;7.08;78.05;153178.19;5042527;28;20439;-77
2023/03/16 10:23:54;;;;;;;7.77;6.70;;;;;;;6.98;76.17;153153.69;5040025;28;20451;-77
2023/03/16 10:26:24;;;;;;;10.30;6.57;;;;;;;7.04;79.01;153169.16;5054643;28;20454;-77
2023/03/16 10:28:53;;;;;;;7.03;5.00;;;;;;;7.14;74.14;153195.00;5059283;28;20448;-77
2023/03/16 10:31:22;;;;;;;6.20;5.00;;;;;;;7.22;76.17;153215.66;5037044;28;20452;-77
2023/03/16 10:33:50;;;;;;;6.10;5.50;;;;;;;7.31;76.50;153238.88;5053465;28;20458;-77
2023/03/16 10:36:24;;;;;;;7.47;5.10;;;;;;;7.41;76.05;153262.16;5037188;28;20536;-77
2023/03/16 10:38:54;;;;;;;6.50;4.90;;;;;;;7.50;72.78;153286.66;5054907;28;20456;-77
2023/03/16 10:41:27;;;;;;;4.70;4.00;;;;;;;7.53;70.39;153293.13;5037728;28;20863;-77
2023/03/16 10:43:56;;;;;;;9.07;4.73;;;;;;;7.52;72.00;153290.56;5053305;28;20468;-77
2023/03/16 10:46:26;;;;;;;7.93;4.30;;;;;;;7.58;71.29;153307.34;5041638;28;20722;-77
2023/03/16 10:48:58;;;;;;;4.90;3.87;;;;;;;7.59;68.12;153309.94;5054364;28;20506;-77
2023/03/16 10:51:27;;;;;;;4.70;4.30;;;;;;;7.66;69.14;153326.72;5052248;28;20455;-77
2023/03/16 10:53:55;;;;;;;7.73;4.80;;;;;;;7.55;70.22;153298.28;5041700;28;20448;-77
2023/03/16 10:56:26;;;;;;;5.33;4.10;;;;;;;7.67;70.94;153329.31;5055064;28;20515;-78
2023/03/16 10:58:53;;;;;;;5.07;3.50;;;;;;;7.84;68.29;153373.19;5053824;28;20459;-77
2023/03/16 11:01:22;;;;;;;4.90;4.30;;;;;;;7.95;67.68;153401.63;5035880;28;20451;-77
2023/03/16 11:03:52;;;;;;;4.20;3.53;;;;;;;7.88;66.70;153383.56;5027163;28;20444;-78
2023/03/16 11:06:23;;;;;;;5.60;3.73;;;;;;;7.84;68.23;153373.19;5054519;28;20459;-77
2023/03/16 11:08:51;;;;;;;6.47;3.60;;;;;;;7.89;67.50;153386.13;5045998;28;20481;-77
2023/03/16 11:11:23;;;;;;;5.13;3.20;;;;;;;7.98;68.74;153410.69;5072272;28;20542;-77
2023/03/16 11:13:56;;;;;;;4.10;3.43;;;;;;;8.04;68.30;153424.91;5057857;28;21144;-77
2023/03/16 11:16:26;;;;;;;3.90;3.50;;;;;;;8.14;67.92;153449.44;5059609;28;20462;-77
2023/03/16 11:18:56;;;;;;;4.43;3.10;;;;;;;8.20;64.65;153466.28;5050040;28;20447;-78
2023/03/16 11:21:31;;;;;;;5.17;3.60;;;;;;;8.22;66.34;153471.44;5055511;28;20458;-78
2023/03/16 11:23:59;;;;;;;3.63;3.23;;;;;;;8.21;65.14;153468.81;5072893;28;20587;-78